Time;durP1;ratioP1;P1;durP2;ratioP2;P2;SDS_P1;SDS_P2;PMS_P1;PMS_P2;Temp;Humidity;BMP_temperature;BMP_pressure;BME280_temperature;BME280_humidity;BME280_pressure;Samples;Min_cycle;Max_cycle;Signal;HPM_P1;HPM_P2
2024/02/01 00:04:09;;;;;;;;;;;;;;;-146.07;100.00;70291.31;10461653;28;19919;-82
2024/02/01 00:09:10;;;;;;;;;;;;;;;-146.07;100.00;70291.31;10475598;28;19924;-80
2024/02/01 00:14:11;;;;;;;;;;;;;;;-146.07;100.00;70291.31;10454389;28;20306;-81
2024/02/01 00:19:11;;;;;;;;;;;;;;;-146.07;100.00;70291.31;10450602;28;19916;-81
2024/02/01 00:24:12;;;;;;;;;;;;;;;-146.07;100.00;70291.31;10474345;28;19970;-83
2024/02/01 00:29:14;;;;;;;;;;;;;;;-146.07;100.00;70291.31;10476638;28;20000;-85
2024/02/01 00:34:14;;;;;;;;;;;;;;;-146.07;100.00;70291.31;10448857;28;19963;-82
2024/02/01 00:39:14;;;;;;;;;;;;;;;-146.07;100.00;70291.31;10473681;28;20398;-82
2024/02/01 00:44:14;;;;;;;;;;;;;;;-146.07;100.00;70291.31;10472442;28;19935;-82
2024/02/01 00:49:15;;;;;;;;;;;;;;;-146.07;100.00;70291.31;10448005;28;19928;-81
2024/02/01 00:54:15;;;;;;;;;;;;;;;-146.07;100.00;70291.31;10460076;28;21247;-81
2024/02/01 00:59:15;;;;;;;;;;;;;;;-146.07;100.00;70291.31;10472596;28;19912;-81
2024/02/01 01:04:16;;;;;;;;;;;;;;;-146.07;100.00;70291.31;10457940;28;19982;-81
2024/02/01 01:09:16;;;;;;;;;;;;;;;-146.07;100.00;70291.31;10456892;28;19917;-80
2024/02/01 01:14:16;;;;;;;;;;;;;;;-146.07;100.00;70291.31;10486346;28;19920;-83
2024/02/01 01:19:16;;;;;;;;;;;;;;;-146.07;100.00;70291.31;10464863;28;19962;-84
2024/02/01 01:24:17;;;;;;;;;;;;;;;-146.07;100.00;70291.31;10466803;28;20537;-83
2024/02/01 01:29:17;;;;;;;;;;;;;;;-146.07;100.00;70291.31;10466937;28;19917;-83
2024/02/01 01:34:22;;;;;;;;;;;;;;;-146.07;100.00;70291.31;10469798;28;19919;-83
2024/02/01 01:39:23;;;;;;;;;;;;;;;-146.07;100.00;70291.31;10460281;28;19913;-83
2024/02/01 01:44:23;;;;;;;;;;;;;;;-146.07;100.00;70291.31;10472230;28;20401;-82
2024/02/01 01:49:24;;;;;;;;;;;;;;;-146.07;100.00;70291.31;10462366;28;19926;-83
2024/02/01 01:54:25;;;;;;;;;;;;;;;-146.07;100.00;70291.31;10467314;28;20314;-83
2024/02/01 01:59:25;;;;;;;;;;;;;;;-146.07;100.00;70291.31;10461758;28;20305;-83
2024/02/01 02:04:26;;;;;;;;;;;;;;;-146.07;100.00;70291.31;10471484;28;19934;-81
2024/02/01 02:09:26;;;;;;;;;;;;;;;-146.07;100.00;70291.31;10457696;28;19916;-80
2024/02/01 02:14:26;;;;;;;;;;;;;;;-146.07;100.00;70291.31;10466666;28;19983;-81
2024/02/01 02:19:27;;;;;;;;;;;;;;;-146.07;100.00;70291.31;10472715;28;20456;-80
2024/02/01 02:24:27;;;;;;;;;;;;;;;-146.07;100.00;70291.31;10494770;28;19913;-82
2024/02/01 02:29:27;;;;;;;;;;;;;;;-146.07;100.00;70291.31;10458244;28;19920;-82
2024/02/01 02:34:27;;;;;;;;;;;;;;;-146.07;100.00;70291.31;10479386;28;19919;-83
2024/02/01 02:39:28;;;;;;;;;;;;;;;-146.07;100.00;70291.31;10477272;28;20299;-83
2024/02/01 02:44:28;;;;;;;;;;;;;;;-146.07;100.00;70291.31;10464055;28;19952;-83
2024/02/01 02:49:28;;;;;;;;;;;;;;;-146.07;100.00;70291.31;10471937;28;20386;-83
2024/02/01 02:54:28;;;;;;;;;;;;;;;-146.07;100.00;70291.31;10437632;28;19966;-81
2024/02/01 02:59:29;;;;;;;;;;;;;;;-146.07;100.00;70291.31;10459184;28;20098;-81
2024/02/01 03:04:29;;;;;;;;;;;;;;;-146.07;100.00;70291.31;10488368;28;19912;-81
2024/02/01 03:09:29;;;;;;;;;;;;;;;-146.07;100.00;70291.31;10445670;28;20019;-82
2024/02/01 03:14:29;;;;;;;;;;;;;;;-146.07;100.00;70291.31;10444234;28;19920;-82
2024/02/01 03:19:30;;;;;;;;;;;;;;;-146.07;100.00;70291.31;10476389;28;20155;-82
2024/02/01 03:24:30;;;;;;;;;;;;;;;-146.07;100.00;70291.31;10469297;28;19919;-81
2024/02/01 03:29:35;;;;;;;;;;;;;;;-146.07;100.00;70291.31;10444574;28;19924;-81
2024/02/01 03:34:35;;;;;;;;;;;;;;;-146.07;100.00;70291.31;10473333;28;19923;-81
2024/02/01 03:39:35;;;;;;;;;;;;;;;-146.07;100.00;70291.31;10475234;28;19920;-82
2024/02/01 03:44:39;;;;;;;;;;;;;;;-146.07;100.00;70291.31;10471942;28;20361;-79
2024/02/01 03:49:40;;;;;;;;;;;;;;;-146.07;100.00;70291.31;10467592;28;19932;-79
2024/02/01 03:54:40;;;;;;;;;;;;;;;-146.07;100.00;70291.31;10441289;28;20345;-81
2024/02/01 03:59:44;;;;;;;;;;;;;;;-146.07;100.00;70291.31;10474955;28;20399;-78
2024/02/01 04:04:45;;;;;;;;;;;;;;;-146.07;100.00;70291.31;10472522;28;19919;-77
2024/02/01 04:09:46;;;;;;;;;;;;;;;-146.07;100.00;70291.31;10489080;28;19939;-79
2024/02/01 04:14:46;;;;;;;;;;;;;;;-146.07;100.00;70291.31;10440076;28;19996;-79
2024/02/01 04:19:47;;;;;;;;;;;;;;;-146.07;100.00;70291.31;10474679;28;20007;-79
2024/02/01 04:24:47;;;;;;;;;;;;;;;-146.07;100.00;70291.31;10474274;28;20312;-80
2024/02/01 04:29:47;;;;;;;;;;;;;;;-146.07;100.00;70291.31;10475709;28;19923;-80
2024/02/01 04:34:48;;;;;;;;;;;;;;;-146.07;100.00;70291.31;10458456;28;19917;-78
2024/02/01 04:39:49;;;;;;;;;;;;;;;-146.07;100.00;70291.31;10485989;28;19936;-79
2024/02/01 04:44:50;;;;;;;;;;;;;;;-146.07;100.00;70291.31;10489493;28;19923;-79
2024/02/01 04:49:50;;;;;;;;;;;;;;;-146.07;100.00;70291.31;10473127;28;19925;-78
2024/02/01 04:54:51;;;;;;;;;;;;;;;-146.07;100.00;70291.31;10471382;28;19923;-81
2024/02/01 04:59:51;;;;;;;;;;;;;;;-146.07;100.00;70291.31;10468107;28;19913;-80
2024/02/01 05:04:51;;;;;;;;;;;;;;;-146.07;100.00;70291.31;10461504;28;20398;-82
2024/02/01 05:09:52;;;;;;;;;;;;;;;-146.07;100.00;70291.31;10453328;28;20363;-79
2024/02/01 05:14:53;;;;;;;;;;;;;;;-146.07;100.00;70291.31;10468912;28;20007;-78
2024/02/01 05:19:53;;;;;;;;;;;;;;;-146.07;100.00;70291.31;10466165;28;19920;-78
2024/02/01 05:24:54;;;;;;;;;;;;;;;-146.07;100.00;70291.31;10466397;28;20413;-77
2024/02/01 05:29:54;;;;;;;;;;;;;;;-146.07;100.00;70291.31;10466631;28;19917;-77
2024/02/01 05:34:55;;;;;;;;;;;;;;;-146.07;100.00;70291.31;10466764;28;19970;-77
2024/02/01 05:39:55;;;;;;;;;;;;;;;-146.07;100.00;70291.31;10449126;28;19913;-79
2024/02/01 05:44:55;;;;;;;;;;;;;;;-146.07;100.00;70291.31;10459666;28;19912;-78
2024/02/01 05:49:55;;;;;;;;;;;;;;;-146.07;100.00;70291.31;10451955;28;20436;-79
2024/02/01 05:54:56;;;;;;;;;;;;;;;-146.07;100.00;70291.31;10474847;28;20302;-79
2024/02/01 05:59:56;;;;;;;;;;;;;;;-146.07;100.00;70291.31;10473571;28;19956;-79
2024/02/01 06:04:57;;;;;;;;;;;;;;;-146.07;100.00;70291.31;10470437;28;20326;-78
2024/02/01 06:09:59;;;;;;;;;;;;;;;-146.07;100.00;70291.31;10470854;28;19921;-78
2024/02/01 06:14:59;;;;;;;;;;;;;;;-146.07;100.00;70291.31;10470376;28;20082;-79
2024/02/01 06:20:00;;;;;;;;;;;;;;;-146.07;100.00;70291.31;10471532;28;19919;-79
2024/02/01 06:25:00;;;;;;;;;;;;;;;-146.07;100.00;70291.31;10473383;28;19917;-78
2024/02/01 06:30:00;;;;;;;;;;;;;;;-146.07;100.00;70291.31;10472865;28;19917;-79
2024/02/01 06:35:06;;;;;;;;;;;;;;;-146.07;100.00;70291.31;10473613;28;19913;-78
2024/02/01 06:45:28;;;;;;;;;;;;;;;-146.07;100.00;70291.31;10474249;28;19912;-78
2024/02/01 06:50:46;;;;;;;;;;;;;;;-146.07;100.00;70291.31;10473014;28;19920;-79
2024/02/01 06:55:54;;;;;;;;;;;;;;;-146.07;100.00;70291.31;10473431;28;20346;-79
2024/02/01 07:01:03;;;;;;;;;;;;;;;-146.07;100.00;70291.31;10456252;28;19912;-78
2024/02/01 07:06:17;;;;;;;;;;;;;;;-146.07;100.00;70291.31;10472255;28;19971;-78
2024/02/01 07:11:25;;;;;;;;;;;;;;;-146.07;100.00;70291.31;10470919;28;19923;-78
2024/02/01 07:16:35;;;;;;;;;;;;;;;-146.07;100.00;70291.31;10475935;28;19916;-78
2024/02/01 07:21:59;;;;;;;;;;;;;;;-146.07;100.00;70291.31;10440049;28;19982;-78
2024/02/01 07:57:35;;;;;;;;;;;;;;;-146.07;100.00;70291.31;10463996;28;19952;-78
2024/02/01 07:59:02;;;;;;;;;;;;;;;-146.07;100.00;70291.31;10483740;28;20394;-79
2024/02/01 08:04:12;;;;;;;;;;;;;;;-146.07;100.00;70291.31;10495661;28;19947;-78
2024/02/01 08:09:14;;;;;;;;;;;;;;;-146.07;100.00;70291.31;10483686;28;19920;-78
2024/02/01 08:14:14;;;;;;;;;;;;;;;-146.07;100.00;70291.31;10480976;28;19922;-78
2024/02/01 08:19:20;;;;;;;;;;;;;;;-146.07;100.00;70291.31;10454791;28;19913;-80
2024/02/01 08:24:22;;;;;;;;;;;;;;;-146.07;100.00;70291.31;10472417;28;20254;-79
2024/02/01 08:29:27;;;;;;;;;;;;;;;-146.07;100.00;70291.31;10497107;28;19927;-78
2024/02/01 08:34:27;;;;;;;;;;;;;;;-146.07;100.00;70291.31;10474928;28;19919;-79
2024/02/01 08:39:30;;;;;;;;;;;;;;;-146.07;100.00;70291.31;10468246;28;19913;-78
2024/02/01 08:44:30;;;;;;;;;;;;;;;-146.07;100.00;70291.31;10468802;28;20299;-79
2024/02/01 08:49:38;;;;;;;;;;;;;;;-146.07;100.00;70291.31;10466392;28;19928;-79
2024/02/01 08:54:40;;;;;;;;;;;;;;;-146.07;100.00;70291.31;10469883;28;19920;-77
2024/02/01 08:59:40;;;;;;;;;;;;;;;-146.07;100.00;70291.31;10467906;28;19919;-78
2024/02/01 09:04:41;;;;;;;;;;;;;;;-146.07;100.00;70291.31;10468640;28;20290;-79
2024/02/01 09:09:43;;;;;;;;;;;;;;;-146.07;100.00;70291.31;10469107;28;19923;-80
2024/02/01 09:14:43;;;;;;;;;;;;;;;-146.07;100.00;70291.31;10505147;28;19921;-78
2024/02/01 09:19:43;;;;;;;;;;;;;;;-146.07;100.00;70291.31;10466128;28;20023;-78
2024/02/01 09:24:43;;;;;;;;;;;;;;;-146.07;100.00;70291.31;10472090;28;19928;-78
2024/02/01 09:29:45;;;;;;;;;;;;;;;-146.07;100.00;70291.31;10473242;28;19916;-77
2024/02/01 09:34:45;;;;;;;;;;;;;;;-146.07;100.00;70291.31;10493265;28;20288;-79
2024/02/01 09:39:45;;;;;;;;;;;;;;;-146.07;100.00;70291.31;10474538;28;19919;-78
2024/02/01 09:44:46;;;;;;;;;;;;;;;-146.07;100.00;70291.31;10474925;28;19989;-79
2024/02/01 09:49:48;;;;;;;;;;;;;;;-146.07;100.00;70291.31;10473960;28;20680;-79
2024/02/01 09:54:49;;;;;;;;;;;;;;;-146.07;100.00;70291.31;10473544;28;19923;-78
2024/02/01 09:59:50;;;;;;;;;;;;;;;-146.07;100.00;70291.31;10473758;28;20279;-79
2024/02/01 10:04:51;;;;;;;;;;;;;;;-146.07;100.00;70291.31;10456040;28;20657;-80
2024/02/01 10:09:51;;;;;;;;;;;;;;;-146.07;100.00;70291.31;10472426;28;19924;-79
2024/02/01 10:14:52;;;;;;;;;;;;;;;-146.07;100.00;70291.31;10472184;28;19922;-79
2024/02/01 10:19:52;;;;;;;;;;;;;;;6.13;40.80;96046.66;10454971;28;19923;-79
2024/02/01 10:24:56;;;;;;;;;;;;;;;-146.07;100.00;70291.31;10472586;28;20384;-79
2024/02/01 10:29:56;;;;;;;;;;;;;;;-146.07;100.00;70291.31;10470782;28;19960;-78
2024/02/01 10:34:57;;;;;;;;;;;;;;;-146.07;100.00;70291.31;10471012;28;19999;-78
2024/02/01 10:40:01;;;;;;;;;;;;;;;-146.07;100.00;70291.31;10469501;28;19966;-79
2024/02/01 10:45:09;;;;;;;;;;;;;;;11.94;35.71;95582.47;10470541;28;19920;-78
2024/02/01 10:50:09;;;;;;;;;;;;;;;18.01;27.41;95498.50;10471187;28;19921;-78
2024/02/01 10:55:10;;;;;;;;;;;;;;;19.79;25.31;95483.03;10470949;28;19920;-77
2024/02/01 11:00:19;;;;;;;;;;;;;;;21.30;23.38;95464.72;10471444;28;19916;-78
2024/02/01 11:05:26;;;;;;;;;;;;;;;22.52;21.50;95463.47;10474353;28;20353;-78
2024/02/01 11:10:26;;;;;;;;;;;;;;;22.64;21.77;95441.66;10469945;28;19924;-77
2024/02/01 11:15:29;;;;;;;;;;;;;;;22.94;21.33;95433.38;10486424;28;19935;-78
2024/02/01 11:20:32;;;;;;;;;;;;;;;22.73;21.00;95432.56;10490555;28;20348;-78
2024/02/01 11:25:33;;;;;;;;;;;;;;;22.24;21.39;95425.59;10499659;28;20018;-78
2024/02/01 11:30:34;;;;;;;;;;;;;;;21.93;21.05;95424.00;10495995;28;19921;-78
2024/02/01 11:35:40;;;;;;;;;;;;;;;22.73;20.48;95405.16;10468998;28;19970;-79
2024/02/01 11:40:42;;;;;;;;;;;;;;;22.56;20.59;89770.56;10466320;28;19916;-78
2024/02/01 11:45:53;;;;;;;;;;;;;;;-146.07;20.73;58562.44;10475655;28;19916;-78
2024/02/01 11:50:59;;;;;;;;;;;;;;;21.48;20.81;95399.84;10468101;28;19927;-77
2024/02/01 11:56:00;;;;;;;;;;;;;;;21.06;21.08;95388.69;10466953;28;19920;-78
2024/02/01 12:01:01;;;;;;;;;;;;;;;21.36;20.64;95377.84;10468590;28;19934;-78
2024/02/01 12:06:02;;;;;;;;;;;;;;;17.83;23.54;95383.22;10489681;28;19913;-78
2024/02/01 12:11:02;;;;;;;;;;;;;;;15.15;26.34;95396.13;10469055;28;19916;-79
2024/02/01 12:16:04;;;;;;;;;;;;;;;13.58;28.00;95394.97;10470175;28;19916;-79
2024/02/01 12:21:09;;;;;;;;;;;;;;;12.10;30.42;95384.81;10469204;28;20371;-80
2024/02/01 12:26:09;;;;;;;;;;;;;;;11.42;30.79;95380.22;10468735;28;19916;-78
2024/02/01 12:31:10;;;;;;;;;;;;;;;11.36;30.37;95385.84;10469027;28;20311;-79
2024/02/01 12:36:10;;;;;;;;;;;;;;;11.19;31.40;95377.97;10468800;28;19912;-79
2024/02/01 12:41:12;;;;;;;;;;;;;;;10.91;31.64;95370.03;10438254;28;19921;-78
2024/02/01 12:46:12;;;;;;;;;;;;;;;10.58;32.86;95361.19;10437406;28;19924;-80
2024/02/01 12:51:13;;;;;;;;;;;;;;;10.17;33.90;95360.00;10467982;28;19928;-78
2024/02/01 12:56:13;;;;;;;;;;;;;;;9.82;33.10;95355.91;10467809;28;20552;-78
2024/02/01 13:01:13;;;;;;;;;;;;;;;9.87;33.07;95335.28;10467447;28;19979;-80
2024/02/01 13:06:13;;;;;;;;;;;;;;;10.05;33.59;95338.69;10483912;28;20335;-79
2024/02/01 13:11:13;;;;;;;;;;;;;;;9.92;33.95;95331.84;10468288;28;19912;-78
2024/02/01 13:16:15;;;;;;;;;;;;;;;10.28;33.13;95318.72;10471811;28;20435;-78
2024/02/01 13:21:16;;;;;;;;;;;;;;;10.49;32.13;95319.72;10467876;28;19917;-78
2024/02/01 13:26:16;;;;;;;;;;;;;;;10.58;28.87;95306.63;10466567;28;19912;-77
2024/02/01 13:31:16;;;;;;;;;;;;;;;10.60;28.43;95304.47;10433000;28;20351;-79
2024/02/01 13:36:17;;;;;;;;;;;;;;;10.63;28.54;95301.25;10467496;28;19912;-78
2024/02/01 13:41:17;;;;;;;;;;;;;;;10.69;27.91;95296.72;10467328;28;20429;-79
2024/02/01 13:46:17;;;;;;;;;;;;;;;10.59;28.72;95300.16;10472127;28;19912;-81
2024/02/01 13:51:19;;;;;;;;;;;;;;;10.53;27.92;95298.53;10473294;28;20027;-78
2024/02/01 13:56:19;;;;;;;;;;;;;;;10.44;27.75;95300.88;10466075;28;19921;-78
2024/02/01 14:01:20;;;;;;;;;;;;;;;10.41;28.06;95299.53;10466932;28;19920;-78
2024/02/01 14:06:20;;;;;;;;;;;;;;;10.30;28.06;95296.97;10466419;28;19920;-79
2024/02/01 14:11:20;;;;;;;;;;;;;;;10.27;28.74;95296.44;10468178;28;19920;-78
2024/02/01 14:16:21;;;;;;;;;;;;;;;10.15;29.00;95290.41;10484667;28;19916;-79
2024/02/01 14:21:21;;;;;;;;;;;;;;;10.16;27.79;95293.91;10470552;28;19931;-78
2024/02/01 14:26:22;;;;;;;;;;;;;;;10.09;28.73;95294.16;10474021;28;20347;-78
2024/02/01 14:31:22;;;;;;;;;;;;;;;9.98;28.65;95293.25;10471463;28;19983;-78
2024/02/01 14:36:22;;;;;;;;;;;;;;;9.83;29.29;95293.91;10483713;28;19934;-78
2024/02/01 14:41:23;;;;;;;;;;;;;;;9.83;29.64;95285.84;10470775;28;20358;-78
2024/02/01 14:46:23;;;;;;;;;;;;;;;9.72;30.64;95276.88;10470457;28;20334;-78
2024/02/01 14:51:23;;;;;;;;;;;;;;;9.63;31.46;95289.16;10469531;28;19921;-78
2024/02/01 14:56:24;;;;;;;;;;;;;;;9.29;31.82;95286.63;10472181;28;19970;-78
2024/02/01 15:01:24;;;;;;;;;;;;;;;9.00;32.07;95283.34;10470616;28;19917;-80
2024/02/01 15:06:24;;;;;;;;;;;;;;;8.71;32.95;95284.34;10489584;28;19970;-79
2024/02/01 15:11:25;;;;;;;;;;;;;;;8.52;33.82;95289.16;10492156;28;19920;-80
2024/02/01 15:16:26;;;;;;;;;;;;;;;8.22;34.20;95284.16;10479755;28;20285;-81
2024/02/01 15:21:30;;;;;;;;;;;;;;;7.95;34.94;95284.78;10492727;28;19920;-81
2024/02/01 15:26:33;;;;;;;;;;;;;;;7.65;35.67;95277.88;10473421;28;20374;-78
2024/02/01 15:31:33;;;;;;;;;;;;;;;7.56;35.81;95279.28;10484011;28;19922;-80
2024/02/01 15:36:37;;;;;;;;;;;;;;;7.28;36.55;95280.13;10485673;28;19913;-79
2024/02/01 15:41:38;;;;;;;;;;;;;;;7.12;36.94;95282.50;10471564;28;19920;-78
2024/02/01 15:46:38;;;;;;;;;;;;;;;6.94;37.82;95286.16;10484142;28;20386;-79
2024/02/01 15:51:42;;;;;;;;;;;;;;;6.69;38.71;95282.97;10486087;28;19924;-79
2024/02/01 15:56:43;;;;;;;;;;;;;;;6.65;39.39;95288.75;10493948;28;19923;-78
2024/02/01 16:01:44;;;;;;;;;;;;;;;6.66;39.31;95289.59;10465678;28;20015;-79
2024/02/01 16:06:45;;;;;;;;;;;;;;;6.56;39.89;95292.84;10490680;28;19969;-80
2024/02/01 16:11:45;;;;;;;;;;;;;;;6.60;39.81;95298.53;10485836;28;19912;-78
2024/02/01 16:16:46;;;;;;;;;;;;;;;6.49;40.31;95310.88;10486089;28;20311;-78
2024/02/01 16:21:47;;;;;;;;;;;;;;;6.50;40.82;95297.28;10488337;28;20382;-78
2024/02/01 16:26:48;;;;;;;;;;;;;;;6.22;41.99;95315.84;10482430;28;19916;-79
2024/02/01 16:31:49;;;;;;;;;;;;;;;6.26;42.20;95306.31;10489699;28;19973;-79
2024/02/01 16:36:55;;;;;;;;;;;;;;;6.21;42.68;95304.34;10483188;28;20412;-79
2024/02/01 16:41:56;;;;;;;;;;;;;;;6.16;43.05;95307.69;10482467;28;19938;-77
2024/02/01 16:46:56;;;;;;;;;;;;;;;6.14;44.07;95309.81;10484846;28;19917;-79
2024/02/01 16:51:56;;;;;;;;;;;;;;;5.90;44.28;95308.94;10480678;28;20403;-79
2024/02/01 16:56:59;;;;;;;;;;;;;;;5.81;44.63;95320.97;10469871;28;21325;-79
2024/02/01 17:01:59;;;;;;;;;;;;;;;5.83;45.20;95316.19;10485010;28;19916;-80
2024/02/01 17:07:00;;;;;;;;;;;;;;;5.67;45.66;95317.69;10463647;28;19962;-79
2024/02/01 17:12:01;;;;;;;;;;;;;;;5.56;46.75;95318.47;10483491;28;20000;-78
2024/02/01 17:17:24;;;;;;;;;;;;;;;5.41;47.62;95326.88;10481247;28;20492;-79
2024/02/01 17:22:26;;;;;;;;;;;;;;;5.33;47.85;95309.34;10465085;28;20019;-80
2024/02/01 17:27:34;;;;;;;;;;;;;;;5.19;48.73;95314.03;10469350;28;19920;-87
2024/02/01 17:32:38;;;;;;;;;;;;;;;5.09;51.00;95313.75;10454185;28;19916;-86
2024/02/01 17:37:38;;;;;;;;;;;;;;;4.93;51.13;95309.84;10449231;28;19913;-86
2024/02/01 17:42:39;;;;;;;;;;;;;;;4.94;51.86;95316.81;10469436;28;19923;-80
2024/02/01 17:47:42;;;;;;;;;;;;;;;4.94;52.12;95320.28;10475559;28;19916;-82
2024/02/01 17:52:50;;;;;;;;;;;;;;;4.92;52.78;95332.19;10448713;28;20017;-81
2024/02/01 17:57:54;;;;;;;;;;;;;;;4.91;53.48;95339.38;10479321;28;20037;-81
2024/02/01 18:02:55;;;;;;;;;;;;;;;4.93;53.62;95329.28;10473607;28;19916;-81
2024/02/01 18:07:55;;;;;;;;;;;;;;;4.99;53.89;95330.25;10452626;28;19961;-80
2024/02/01 18:12:56;;;;;;;;;;;;;;;5.06;54.14;95333.66;10472635;28;19965;-80
2024/02/01 18:17:56;;;;;;;;;;;;;;;5.25;53.48;95334.44;10471652;28;19912;-79
2024/02/01 18:22:57;;;;;;;;;;;;;;;5.35;52.55;95333.09;10479721;28;19917;-79
2024/02/01 18:27:58;;;;;;;;;;;;;;;5.41;52.42;95333.00;10474760;28;19912;-79
2024/02/01 18:32:59;;;;;;;;;;;;;;;5.52;52.77;95327.94;10481895;28;19912;-78
2024/02/01 18:38:19;;;;;;;;;;;;;;;5.68;52.02;95331.81;10454438;28;19912;-81
2024/02/01 18:43:20;;;;;;;;;;;;;;;5.80;52.88;95335.34;10428009;28;19947;-81
2024/02/01 18:48:20;;;;;;;;;;;;;;;5.89;52.24;95336.66;10452358;28;19931;-80
2024/02/01 18:53:34;;;;;;;;;;;;;;;6.00;51.09;95340.41;10453643;28;20019;-79
2024/02/01 18:58:39;;;;;;;;;;;;;;;6.18;49.56;95339.50;10465125;28;20085;-79
2024/02/01 19:04:08;;;;;;;;;;;;;;;6.15;49.00;95342.63;10445224;28;19928;-80
2024/02/01 19:09:20;;;;;;;;;;;;;;;6.18;49.02;95338.69;10459609;28;19916;-80
2024/02/01 19:14:46;;;;;;;;;;;;;;;6.03;48.52;95339.13;10470266;28;19924;-79
2024/02/01 19:19:47;;;;;;;;;;;;;;;-146.07;100.00;70291.31;10467537;28;20471;-78
2024/02/01 19:24:49;;;;;;;;;;;;;;;-146.07;100.00;70291.31;10458366;28;20745;-77
2024/02/01 19:29:50;;;;;;;;;;;;;;;-146.07;100.00;70291.31;10456722;28;20007;-77
2024/02/01 19:34:50;;;;;;;;;;;;;;;-146.07;100.00;70291.31;10438710;28;19919;-77
2024/02/01 19:39:50;;;;;;;;;;;;;;;-146.07;100.00;70291.31;10461342;28;19939;-81
2024/02/01 19:44:50;;;;;;;;;;;;;;;-146.07;100.00;70291.31;10478130;28;19916;-83
2024/02/01 19:49:51;;;;;;;;;;;;;;;-146.07;100.00;70291.31;10443782;28;20304;-84
2024/02/01 19:54:51;;;;;;;;;;;;;;;-146.07;100.00;70291.31;10446408;28;19921;-80
2024/02/01 19:59:51;;;;;;;;;;;;;;;-146.07;100.00;70291.31;10461305;28;20383;-79
2024/02/01 20:04:51;;;;;;;;;;;;;;;-146.07;100.00;70291.31;10476701;28;19920;-83
2024/02/01 20:09:54;;;;;;;;;;;;;;;-146.07;100.00;70291.31;10476894;28;19940;-87
2024/02/01 20:14:54;;;;;;;;;;;;;;;-146.07;100.00;70291.31;10444438;28;20703;-80
2024/02/01 20:19:54;;;;;;;;;;;;;;;-146.07;100.00;70291.31;10461326;28;19917;-81
2024/02/01 20:24:57;;;;;;;;;;;;;;;-146.07;100.00;70291.31;10477459;28;19920;-81
2024/02/01 20:30:08;;;;;;;;;;;;;;;-146.07;100.00;70291.31;10458968;28;20453;-79
2024/02/01 20:35:11;;;;;;;;;;;;;;;-146.07;100.00;70291.31;10452374;28;19916;-77
2024/02/01 20:40:30;;;;;;;;;;;;;;;-146.07;100.00;70291.31;10456746;28;20288;-77
2024/02/01 20:45:30;;;;;;;;;;;;;;;-146.07;100.00;70291.31;10471616;28;20300;-80
2024/02/01 20:50:34;;;;;;;;;;;;;;;-146.07;100.00;70291.31;10439437;28;19957;-80
2024/02/01 20:55:36;;;;;;;;;;;;;;;-146.07;100.00;70291.31;10454571;28;20326;-78
2024/02/01 21:00:36;;;;;;;;;;;;;;;-146.07;100.00;70291.31;10459686;28;19968;-76
2024/02/01 21:05:37;;;;;;;;;;;;;;;-146.07;100.00;70291.31;10452473;28;19927;-77
2024/02/01 21:10:41;;;;;;;;;;;;;;;-146.07;100.00;70291.31;10470654;28;19913;-84
2024/02/01 21:15:42;;;;;;;;;;;;;;;-146.07;100.00;70291.31;10474420;28;19927;-80
2024/02/01 21:20:44;;;;;;;;;;;;;;;-146.07;100.00;70291.31;10464479;28;20603;-79
2024/02/01 21:25:45;;;;;;;;;;;;;;;-146.07;100.00;70291.31;10449660;28;19919;-79
2024/02/01 21:30:45;;;;;;;;;;;;;;;-146.07;100.00;70291.31;10482697;28;19912;-80
2024/02/01 21:35:48;;;;;;;;;;;;;;;-146.07;100.00;70291.31;10469710;28;19978;-79
2024/02/01 21:40:49;;;;;;;;;;;;;;;-146.07;100.00;70291.31;10466799;28;19975;-81
2024/02/01 21:45:49;;;;;;;;;;;;;;;-146.07;100.00;70291.31;10450442;28;19919;-79
2024/02/01 21:50:50;;;;;;;;;;;;;;;-146.07;100.00;70291.31;10466699;28;20371;-77
2024/02/01 21:55:50;;;;;;;;;;;;;;;-146.07;100.00;70291.31;10467271;28;20250;-78
2024/02/01 22:00:50;;;;;;;;;;;;;;;-146.07;100.00;70291.31;10467192;28;19990;-79
2024/02/01 22:05:51;;;;;;;;;;;;;;;-146.07;100.00;70291.31;10465781;28;19926;-79
2024/02/01 22:10:51;;;;;;;;;;;;;;;-146.07;100.00;70291.31;10464434;28;20349;-79
2024/02/01 22:15:51;;;;;;;;;;;;;;;-146.07;100.00;70291.31;10463747;28;19917;-78
2024/02/01 22:20:51;;;;;;;;;;;;;;;-146.07;100.00;70291.31;10464150;28;19928;-79
2024/02/01 22:25:52;;;;;;;;;;;;;;;-146.07;100.00;70291.31;10447519;28;19916;-80
2024/02/01 22:30:52;;;;;;;;;;;;;;;-146.07;100.00;70291.31;10467202;28;20288;-81
2024/02/01 22:35:52;;;;;;;;;;;;;;;2.61;94.78;95277.66;10482135;28;19912;-79
2024/02/01 22:40:54;;;;;;;;;;;;;;;2.60;96.01;95282.16;10466471;28;19921;-79
2024/02/01 22:45:54;;;;;;;;;;;;;;;2.42;95.92;95285.47;10482356;28;19916;-80
2024/02/01 22:50:55;;;;;;;;;;;;;;;2.54;98.16;95291.75;10466895;28;19936;-79
2024/02/01 22:55:55;;;;;;;;;;;;;;;2.52;99.06;95279.72;10466275;28;20462;-81
2024/02/01 23:00:55;;;;;;;;;;;;;;;2.35;100.00;95280.16;10467021;28;19916;-80
2024/02/01 23:05:55;;;;;;;;;;;;;;;2.49;99.61;95280.94;10467936;28;20391;-79
2024/02/01 23:10:56;;;;;;;;;;;;;;;2.28;100.00;95289.97;10466157;28;20008;-80
2024/02/01 23:15:56;;;;;;;;;;;;;;;2.27;100.00;95276.94;10466010;28;20391;-80
2024/02/01 23:20:56;;;;;;;;;;;;;;;2.08;100.00;95281.25;10463761;28;19973;-79
2024/02/01 23:25:57;;;;;;;;;;;;;;;2.29;100.00;95285.47;10462740;28;20387;-79
2024/02/01 23:30:57;;;;;;;;;;;;;;;2.07;100.00;95284.94;10465183;28;20342;-81
2024/02/01 23:35:58;;;;;;;;;;;;;;;1.97;100.00;95278.22;10465735;28;20294;-80
2024/02/01 23:40:58;;;;;;;;;;;;;;;1.83;100.00;95293.31;10463441;28;20490;-80
2024/02/01 23:45:58;;;;;;;;;;;;;;;1.63;100.00;95295.13;10464537;28;19917;-88
2024/02/01 23:50:59;;;;;;;;;;;;;;;1.68;100.00;95282.91;10476303;28;19921;-82
2024/02/01 23:56:01;;;;;;;;;;;;;;;1.91;100.00;95280.84;10477273;28;19917;-82
